M I D A S
Marine Information and Data Acquisition System
Tripno 1291 of the Zeeleeuw from 2007-06-22 05:56:11 to 2007-06-22 13:24:53
Back to CruiseResearch ActivitiesStationsMapUnderway DataData graphs

EquipmentUnitsComment
TimeDGPSUTC
LatitudeDGPSDM.mWGS84
LongitudeDGPSDM.mWGS84
HeadingGyrodeg 
SOGDGPSknotsSpeed over ground
COGDGPSdegCourse over ground
DepthEcho soundermeters200 kHz
Missing or incorrect values are displayed as -999
Navigation data collected by the RV Zeeleeuw from 2007-06-22 05:57:33 to 2007-06-22 13:35:43
Time Latitude Longitude Heading SOG COG Depth
2007-06-22 05:58:38 51°13.613 2°56.033 117.5 3.9 293 -999
2007-06-22 05:59:38 51°13.651 2°55.925 128.6 5.1 304 -999
2007-06-22 06:00:38 51°13.694 2°55.819 118.8 4 298 -999
2007-06-22 06:01:38 51°13.713 2°55.739 98.7 2.6 283 15.3
2007-06-22 06:02:38 51°13.717 2°55.696 69.7 0.7 278 14
2007-06-22 06:03:38 51°13.734 2°55.696 23.8 3.1 4 13.7
2007-06-22 06:04:38 51°13.804 2°55.655 340.5 6.1 336 13.7
2007-06-22 06:05:38 51°13.916 2°55.576 340.8 8 337 13.7
2007-06-22 06:06:38 51°14.042 2°55.488 340.5 8.1 336 13.4
2007-06-22 06:07:38 51°14.157 2°55.398 334.6 7.8 330 13.4
2007-06-22 06:08:38 51°14.271 2°55.25 318.9 10.3 313 13.4
2007-06-22 06:09:38 51°14.394 2°55.019 314.2 12.4 311 13.2
2007-06-22 06:10:38 51°14.546 2°54.773 315.1 12.9 310 11.9
2007-06-22 06:11:38 51°14.65 2°54.477 296.8 12.9 297 12.2
2007-06-22 06:12:38 51°14.714 2°54.158 282.5 12.5 283 12.4
2007-06-22 06:13:38 51°14.731 2°53.829 270.6 12.6 270 12.8
2007-06-22 06:14:37 51°14.737 2°53.497 274.2 12.8 272 12.7
2007-06-22 06:15:38 51°14.761 2°53.156 283.7 12.9 283 11.6
2007-06-22 06:16:38 51°14.817 2°52.827 284.5 12.8 285 11.8
2007-06-22 06:17:37 51°14.87 2°52.504 284.8 12.7 285 12.2
2007-06-22 06:18:38 51°14.924 2°52.172 284.5 12.7 285 12.6
2007-06-22 06:19:37 51°14.979 2°51.853 285.8 12.7 285 13.2
2007-06-22 06:20:37 51°15.036 2°51.528 285.3 12.6 286 13.8
2007-06-22 06:21:37 51°15.093 2°51.205 285.3 12.7 285 14.2
2007-06-22 06:22:37 51°15.15 2°50.881 285.3 12.7 285 14.5
2007-06-22 06:23:38 51°15.208 2°50.55 285.3 12.7 286 14.7
2007-06-22 06:24:37 51°15.272 2°50.235 292.3 12.8 297 14.8
2007-06-22 06:25:38 51°15.372 2°49.925 294 12.9 295 14.9
2007-06-22 06:26:37 51°15.456 2°49.619 291.9 12.8 292 15.1
2007-06-22 06:27:38 51°15.542 2°49.301 292.4 12.7 293 14.8
2007-06-22 06:28:37 51°15.623 2°48.993 292.4 12.8 293 12.8
2007-06-22 06:29:38 51°15.708 2°48.676 292.5 12.8 293 13
2007-06-22 06:30:37 51°15.79 2°48.366 292.3 12.9 293 14.3
2007-06-22 06:31:38 51°15.878 2°48.05 292.8 12.8 294 16.4
2007-06-22 06:32:37 51°15.957 2°47.744 290.5 12.6 292 17.7
2007-06-22 06:33:37 51°16.036 2°47.434 290.6 12.6 293 18.1
2007-06-22 06:34:38 51°16.116 2°47.118 290.3 12.6 291 16.9
2007-06-22 06:35:37 51°16.192 2°46.813 290.1 12.6 293 13.9
2007-06-22 06:36:38 51°16.272 2°46.495 289.5 12.6 292 12.3
2007-06-22 06:37:37 51°16.35 2°46.186 289.7 12.9 292 11.6
2007-06-22 06:38:37 51°16.43 2°45.867 290.5 13 293 12.3
2007-06-22 06:39:37 51°16.522 2°45.552 296.8 13.2 299 12.7
2007-06-22 06:40:37 51°16.623 2°45.243 296.4 13.1 297 12.7
2007-06-22 06:41:38 51°16.729 2°44.931 297.4 13.1 299 12.2
2007-06-22 06:42:37 51°16.83 2°44.627 296.9 13.2 298 15.3
2007-06-22 06:43:38 51°16.941 2°44.318 298.6 13.2 300 17.3
2007-06-22 06:44:37 51°17.048 2°44.02 298.7 13.2 300 17.1
2007-06-22 06:45:38 51°17.156 2°43.711 298 13.1 299 16.6
2007-06-22 06:46:37 51°17.261 2°43.412 298.9 13.1 301 15.2
2007-06-22 06:47:38 51°17.368 2°43.104 298.1 13 300 14.4
2007-06-22 06:48:38 51°17.477 2°42.806 299.1 13 301 14.5
2007-06-22 06:49:38 51°17.591 2°42.507 299 13.2 301 23.9
2007-06-22 06:50:38 51°17.703 2°42.207 297.7 13.1 300 25.4
2007-06-22 06:51:37 51°17.811 2°41.912 297.7 13.1 301 25.7
2007-06-22 06:52:38 51°17.92 2°41.606 297.5 13 299 25.1
2007-06-22 06:53:37 51°18.026 2°41.309 299.1 13.1 300 23.8
2007-06-22 06:54:38 51°18.136 2°41.005 299.2 12.9 301 21.4
2007-06-22 06:55:37 51°18.252 2°40.723 302.3 12.9 302 19.9
2007-06-22 06:56:38 51°18.369 2°40.429 301.9 12.8 302 18.2
2007-06-22 06:57:38 51°18.493 2°40.15 301.9 13.1 306 24.7
2007-06-22 06:58:37 51°18.614 2°39.864 300.8 13.3 305 26.3
2007-06-22 06:59:38 51°18.741 2°39.568 300.9 13.3 304 26.3
2007-06-22 07:00:37 51°18.861 2°39.278 301 13.2 303 27.2
2007-06-22 07:01:38 51°18.981 2°38.977 300.6 13.3 303 29.3
2007-06-22 07:02:38 51°19.098 2°38.68 301 13.1 302 29.3
2007-06-22 07:03:38 51°19.215 2°38.384 301.9 13.2 302 27.5
2007-06-22 07:04:38 51°19.332 2°38.087 301.2 13.1 301 24
2007-06-22 07:05:38 51°19.449 2°37.793 301.9 13.1 303 22.1
2007-06-22 07:06:38 51°19.567 2°37.502 302.2 13 301 22.6
2007-06-22 07:07:38 51°19.684 2°37.21 300.4 13.1 301 23.1
2007-06-22 07:08:38 51°19.802 2°36.919 301.5 13 303 22.1
2007-06-22 07:09:38 51°19.919 2°36.626 300.7 13.1 303 23
2007-06-22 07:10:38 51°20.037 2°36.333 300.8 13.1 302 22.7
2007-06-22 07:11:37 51°20.153 2°36.045 301.3 13.2 302 20.9
2007-06-22 07:12:38 51°20.274 2°35.748 301.1 13.1 304 19.1
2007-06-22 07:13:38 51°20.392 2°35.457 300.6 13 302 22
2007-06-22 07:14:38 51°20.513 2°35.167 301.8 13.2 305 28
2007-06-22 07:15:38 51°20.64 2°34.883 307 13.4 314 32.3
2007-06-22 07:16:37 51°20.836 2°34.715 341.5 14.1 346 32
2007-06-22 07:17:38 51°21.066 2°34.618 344.5 14 344 31.9
2007-06-22 07:18:38 51°21.292 2°34.518 344.1 14.1 344 32.3
2007-06-22 07:19:38 51°21.513 2°34.408 342.2 13.9 343 33.1
2007-06-22 07:20:38 51°21.733 2°34.296 342.2 13.9 343 30.8
2007-06-22 07:21:38 51°21.953 2°34.18 341.8 13.8 340 29.4
2007-06-22 07:22:38 51°22.17 2°34.06 341.8 13.7 339 26.4
2007-06-22 07:23:38 51°22.382 2°33.932 335.2 13.4 330 28.9
2007-06-22 07:24:38 51°22.545 2°33.693 310 13.3 311 32.4
2007-06-22 07:25:38 51°22.683 2°33.42 308.3 13.2 310 32.8
2007-06-22 07:26:38 51°22.821 2°33.146 308.4 13.2 309 33.1
2007-06-22 07:27:38 51°22.957 2°32.869 306.8 13.2 306 32.4
2007-06-22 07:28:38 51°23.091 2°32.593 306 13.1 309 32.2
2007-06-22 07:29:38 51°23.225 2°32.321 307.4 13 309 30.3
2007-06-22 07:30:38 51°23.359 2°32.049 307 13 308 31.1
2007-06-22 07:31:38 51°23.494 2°31.779 307.4 13.1 309 24.9
2007-06-22 07:32:38 51°23.63 2°31.509 307 13.1 308 27.4
2007-06-22 07:33:38 51°23.772 2°31.244 308.9 13.2 310 31.8
2007-06-22 07:34:37 51°23.914 2°30.981 308.4 13.2 310 34.5
2007-06-22 07:35:38 51°24.056 2°30.704 307.7 13.2 308 33.7
2007-06-22 07:36:38 51°24.195 2°30.43 308.2 13.2 307 34.1
2007-06-22 07:37:38 51°24.336 2°30.157 308.4 13.3 310 35.3
2007-06-22 07:38:38 51°24.476 2°29.882 308.4 13.2 307 35.4
2007-06-22 07:39:38 51°24.618 2°29.612 309.1 13.1 310 34.7
2007-06-22 07:40:38 51°24.756 2°29.344 307.3 12.4 309 33.6
2007-06-22 07:41:38 51°24.873 2°29.115 305.3 9.9 302 32.8
2007-06-22 07:42:38 51°24.904 2°28.945 265.6 4.4 265 31.9
2007-06-22 07:43:38 51°24.868 2°28.874 215.2 4 213 30.8
2007-06-22 07:44:38 51°24.819 2°28.798 231.3 3.3 233 30.1
2007-06-22 07:45:38 51°24.798 2°28.743 231.1 1.8 240 29.6
2007-06-22 07:46:38 51°24.785 2°28.714 221 0.9 229 29.8
2007-06-22 07:47:38 51°24.777 2°28.706 201.5 0.3 150 29.3
2007-06-22 07:48:38 51°24.78 2°28.712 186.8 0.5 60 29.6
2007-06-22 07:49:38 51°24.787 2°28.726 173.8 0.8 40 30.5
2007-06-22 07:50:38 51°24.801 2°28.742 164.8 1.2 31 29.2
2007-06-22 07:51:38 51°24.821 2°28.757 151.1 1.3 21 29.5
2007-06-22 07:52:38 51°24.834 2°28.78 147.3 1.3 84 29.2
2007-06-22 07:53:38 51°24.824 2°28.808 181.3 1.2 158 30.8
2007-06-22 07:54:38 51°24.802 2°28.799 214.9 1.7 216 30.7
2007-06-22 07:55:38 51°24.779 2°28.761 222.4 2 227 30.1
2007-06-22 07:56:38 51°24.759 2°28.725 220.6 1.6 226 30.2
2007-06-22 07:57:38 51°24.752 2°28.695 244 0.9 295 30.1
2007-06-22 07:58:38 51°24.767 2°28.695 270.5 1.3 29 29.2
2007-06-22 07:59:38 51°24.784 2°28.722 297.6 1.5 54 30.1
2007-06-22 08:00:38 51°24.798 2°28.749 310.8 1.2 44 29.9
2007-06-22 08:01:38 51°24.814 2°28.77 317.2 1.1 36 29.4
2007-06-22 08:02:38 51°24.837 2°28.776 302.1 1.7 336 29.4
2007-06-22 08:03:38 51°24.851 2°28.738 254.2 1.8 268 28.1
2007-06-22 08:04:38 51°24.833 2°28.698 213.4 2.3 211 26.7
2007-06-22 08:05:38 51°24.796 2°28.673 204.5 1.9 197 28.6
2007-06-22 08:06:38 51°24.775 2°28.674 182.9 0.9 140 28.8
2007-06-22 08:07:38 51°24.771 2°28.695 160.8 0.8 84 28.5
2007-06-22 08:08:38 51°24.778 2°28.721 147.8 1.1 60 30.1
2007-06-22 08:09:38 51°24.79 2°28.745 141.7 1.2 46 29.3
2007-06-22 08:10:38 51°24.806 2°28.767 136.2 1.5 37 30
2007-06-22 08:11:38 51°24.819 2°28.795 133.3 1.9 90 30.4
2007-06-22 08:12:38 51°24.797 2°28.829 184.3 1.9 174 31.4
2007-06-22 08:13:38 51°24.768 2°28.8 222.6 2.4 229 31.2
2007-06-22 08:14:38 51°24.744 2°28.745 229.7 2.2 238 30.7
2007-06-22 08:15:38 51°24.739 2°28.703 247.1 1.3 282 29.9
2007-06-22 08:16:38 51°24.752 2°28.696 264.1 1.2 18 30
2007-06-22 08:17:38 51°24.77 2°28.709 279.9 1.3 32 -999
2007-06-22 08:18:38 51°24.786 2°28.727 294.7 1.1 31 30.2
2007-06-22 08:19:38 51°24.803 2°28.74 303.5 1 20 28.7
2007-06-22 08:20:38 51°24.822 2°28.752 304.3 1.1 16 29
2007-06-22 08:21:38 51°24.841 2°28.731 271.5 1.7 295 27.6
2007-06-22 08:22:38 51°24.834 2°28.687 220.4 1.9 221 26.2
2007-06-22 08:23:38 51°24.793 2°28.671 197.1 3 193 28.3
2007-06-22 08:24:38 51°24.758 2°28.662 184.8 1.1 177 28
2007-06-22 08:25:38 51°24.756 2°28.673 158 0.6 59 28.8
2007-06-22 08:26:38 51°24.765 2°28.689 131.9 1 40 28.9
2007-06-22 08:27:38 51°24.779 2°28.706 114.3 1.1 35 28.7
2007-06-22 08:28:38 51°24.796 2°28.721 104.2 1.1 29 28.9
2007-06-22 08:29:38 51°24.814 2°28.735 98.1 1.3 22 28.1
2007-06-22 08:30:38 51°24.834 2°28.794 85.5 5.2 74 29.7
2007-06-22 08:31:38 51°24.861 2°29.062 88.2 12.7 82 32.6
2007-06-22 08:32:38 51°24.892 2°29.418 88.5 13.7 84 32.7
2007-06-22 08:33:38 51°24.905 2°29.777 96.2 13.6 83 33.1
2007-06-22 08:34:38 51°24.966 2°30.13 78.3 13.8 73 33.1
2007-06-22 08:35:38 51°25.038 2°30.481 78.1 14 71 33
2007-06-22 08:36:38 51°25.1 2°30.836 81.8 14 77 34.2
2007-06-22 08:37:38 51°25.159 2°31.193 81.3 14 74 34.3
2007-06-22 08:38:38 51°25.213 2°31.536 83.1 12.2 77 32.6
2007-06-22 08:39:38 51°25.245 2°31.824 98.7 9.1 99 34
2007-06-22 08:40:38 51°25.158 2°31.951 172.3 7.1 170 32.8
2007-06-22 08:41:38 51°25.048 2°31.898 208.9 5.7 207 33.1
2007-06-22 08:42:38 51°24.984 2°31.829 214.5 4 216 31.5
2007-06-22 08:43:38 51°24.936 2°31.769 220.5 3.5 223 32.5
2007-06-22 08:44:38 51°24.892 2°31.72 213.3 3 222 33.8
2007-06-22 08:45:38 51°24.865 2°31.678 205.6 1.5 205 28.2
2007-06-22 08:46:38 51°24.849 2°31.675 184.5 0.7 159 29.8
2007-06-22 08:47:38 51°24.842 2°31.688 165.7 0.6 107 29.7
2007-06-22 08:48:38 51°24.843 2°31.705 150.9 0.8 67 28.3
2007-06-22 08:49:38 51°24.852 2°31.726 133.5 1.3 50 30.9
2007-06-22 08:50:38 51°24.864 2°31.748 121.9 1.1 46 33.8
2007-06-22 08:51:38 51°24.876 2°31.778 116.7 2.2 85 33.6
2007-06-22 08:52:38 51°24.879 2°31.823 123.6 1.4 78 33.3
2007-06-22 08:53:38 51°24.886 2°31.854 126.3 1.2 61 31.9
2007-06-22 08:54:38 51°24.894 2°31.874 129 1 47 31.3
2007-06-22 08:55:38 51°24.906 2°31.888 125.5 1 33 33
2007-06-22 08:56:38 51°24.921 2°31.901 116.8 1 25 32.7
2007-06-22 08:57:38 51°24.938 2°31.912 107.6 1.1 21 29.2
2007-06-22 08:58:38 51°24.956 2°31.922 98.4 1.1 19 32.4
2007-06-22 08:59:38 51°24.974 2°31.93 94.1 1.1 14 32.4
2007-06-22 09:00:38 51°24.993 2°31.937 90.6 1.2 12 30.4
2007-06-22 09:01:38 51°25.012 2°31.943 88.3 1.1 13 32.7
2007-06-22 09:02:38 51°25.029 2°31.95 91 1 12 31.1
2007-06-22 09:03:38 51°25.047 2°31.957 92.4 1.2 14 33.1
2007-06-22 09:04:38 51°25.065 2°31.967 93.6 1.1 20 32.9
2007-06-22 09:05:38 51°25.083 2°31.977 95 1 22 32.1
2007-06-22 09:06:38 51°25.1 2°31.986 98.7 1 18 32.8
2007-06-22 09:07:38 51°25.116 2°31.996 103.2 1.1 18 32.6
2007-06-22 09:08:38 51°25.132 2°32.004 103.7 1 19 32.5
2007-06-22 09:09:38 51°25.136 2°32.038 132 2.1 117 32.1
2007-06-22 09:10:38 51°25.097 2°32.057 187.2 3.3 186 32.1
2007-06-22 09:11:38 51°25.033 2°32.018 207.8 4.6 210 32.6
2007-06-22 09:12:38 51°24.98 2°31.939 228.6 3.3 236 30.8
2007-06-22 09:13:38 51°24.973 2°31.898 243.3 0.8 294 32.9
2007-06-22 09:14:38 51°24.982 2°31.881 255.6 1 322 30.3
2007-06-22 09:15:38 51°24.995 2°31.866 262.5 0.9 328 29.5
2007-06-22 09:16:38 51°25.008 2°31.856 266.7 0.9 337 29.3
2007-06-22 09:17:38 51°25.023 2°31.847 270.6 1 341 29.1
2007-06-22 09:18:38 51°25.038 2°31.839 278.1 1 346 31.4
2007-06-22 09:19:38 51°25.054 2°31.832 283.2 0.9 343 33.1
2007-06-22 09:20:38 51°25.071 2°31.825 285.9 1 343 32.9
2007-06-22 09:21:38 51°25.087 2°31.817 285.6 0.9 339 32.5
2007-06-22 09:22:38 51°25.103 2°31.808 283 1.1 341 32.9
2007-06-22 09:23:38 51°25.118 2°31.799 282.4 1 337 32.6
2007-06-22 09:24:38 51°25.134 2°31.788 279.6 1 338 32.7
2007-06-22 09:25:38 51°25.149 2°31.777 275.1 0.9 334 32.5
2007-06-22 09:26:38 51°25.164 2°31.766 270.9 1 335 32.3
2007-06-22 09:27:38 51°25.175 2°31.739 254.3 2.4 261 32.3
2007-06-22 09:28:38 51°25.135 2°31.699 190.8 2.8 184 32.3
2007-06-22 09:29:38 51°25.075 2°31.731 158.2 4.6 156 33.2
2007-06-22 09:30:38 51°25.014 2°31.738 197.2 2.3 206 33.3
2007-06-22 09:31:38 51°25.002 2°31.712 235.7 1.2 256 33.4
2007-06-22 09:32:38 51°25.005 2°31.683 249.1 1.1 291 33.5
2007-06-22 09:33:38 51°25.014 2°31.659 257.3 1 304 33.3
2007-06-22 09:34:38 51°25.024 2°31.641 260.8 0.9 316 33.5
2007-06-22 09:35:38 51°25.037 2°31.626 262.9 0.8 321 33.3
2007-06-22 09:36:38 51°25.059 2°31.567 304 4.8 312 33.7
2007-06-22 09:37:38 51°25.124 2°31.538 7.9 3.7 6 33.5
2007-06-22 09:38:38 51°25.163 2°31.56 51 1.7 29 32.4
2007-06-22 09:39:38 51°25.184 2°31.579 65.9 1.2 32 32.4
2007-06-22 09:40:38 51°25.2 2°31.592 73.1 0.9 28 32.3
2007-06-22 09:41:38 51°25.214 2°31.602 83.7 0.8 19 32.3
2007-06-22 09:42:38 51°25.226 2°31.607 92.1 0.7 11 32.6
2007-06-22 09:43:38 51°25.238 2°31.608 96.6 0.8 1 32.7
2007-06-22 09:44:38 51°25.251 2°31.608 101.6 0.7 358 32.4
2007-06-22 09:45:38 51°25.263 2°31.605 104 0.7 348 32.2
2007-06-22 09:46:38 51°25.275 2°31.601 102.4 0.7 344 32.2
2007-06-22 09:47:38 51°25.289 2°31.594 96.6 0.8 340 32.6
2007-06-22 09:48:38 51°25.301 2°31.585 91.5 0.9 333 32.5
2007-06-22 09:49:38 51°25.314 2°31.575 87.4 0.8 332 32.4
2007-06-22 09:50:38 51°25.328 2°31.564 83.7 0.9 330 32.4
2007-06-22 09:51:38 51°25.341 2°31.552 78.2 0.8 351 32.6
2007-06-22 09:52:38 51°25.348 2°31.581 110.1 2.3 107 32.6
2007-06-22 09:53:38 51°25.307 2°31.616 174.8 3.7 176 32.3
2007-06-22 09:54:38 51°25.231 2°31.618 180 5.1 179 32.7
2007-06-22 09:55:38 51°25.158 2°31.627 167.2 3.2 168 32.3
2007-06-22 09:56:38 51°25.134 2°31.651 132.2 1.2 123 32.8
2007-06-22 09:57:38 51°25.128 2°31.675 124 0.8 107 32.8
2007-06-22 09:58:38 51°25.126 2°31.692 123.4 0.5 94 32.5
2007-06-22 09:59:38 51°25.126 2°31.702 127.1 0.3 75 32.2
2007-06-22 10:00:38 51°25.129 2°31.709 126.4 0.3 32 32.1
2007-06-22 10:01:38 51°25.133 2°31.711 124.8 0.3 3 32.1
2007-06-22 10:02:38 51°25.14 2°31.71 122.7 0.5 356 32
2007-06-22 10:03:38 51°25.148 2°31.708 117.5 0.6 349 31.9
2007-06-22 10:04:38 51°25.157 2°31.704 109.2 0.5 336 32
2007-06-22 10:05:38 51°25.158 2°31.72 124 1.5 118 32
2007-06-22 10:06:38 51°25.123 2°31.741 177.6 3.6 188 32.1
2007-06-22 10:07:38 51°25.077 2°31.612 262.7 8.1 265 33.1
2007-06-22 10:08:38 51°25.071 2°31.322 269.2 13.3 267 33.1
2007-06-22 10:09:38 51°25.062 2°30.954 270 13.9 269 34.5
2007-06-22 10:10:38 51°25.055 2°30.586 269.4 13.8 268 32.1
2007-06-22 10:11:38 51°25.046 2°30.22 269.2 13.8 267 33.3
2007-06-22 10:12:38 51°25.037 2°29.853 269.4 13.8 267 31.7
2007-06-22 10:13:38 51°25.028 2°29.484 270 13.8 265 32.7
2007-06-22 10:14:38 51°24.97 2°29.133 252.3 13.3 248 31.6
2007-06-22 10:15:38 51°24.886 2°28.922 230.6 7.7 232 28.8
2007-06-22 10:16:38 51°24.844 2°28.771 254.1 5.1 253 27.2
2007-06-22 10:17:38 51°24.816 2°28.678 230.7 3.1 238 25.8
2007-06-22 10:18:38 51°24.789 2°28.626 207.3 2.2 220 26
2007-06-22 10:19:38 51°24.765 2°28.6 180 1 216 25.1
2007-06-22 10:20:38 51°24.753 2°28.589 156.7 0.7 194 25.3
2007-06-22 10:21:38 51°24.747 2°28.587 125 0.2 221 25.3
2007-06-22 10:22:38 51°24.747 2°28.593 98.7 0.6 79 25.4
2007-06-22 10:23:38 51°24.757 2°28.617 68.7 1.5 58 26.2
2007-06-22 10:24:38 51°24.769 2°28.656 74.4 1.8 66 26.9
2007-06-22 10:25:38 51°24.788 2°28.7 67.2 2 60 28
2007-06-22 10:26:38 51°24.798 2°28.74 88.5 1.4 83 27.8
2007-06-22 10:27:38 51°24.797 2°28.761 101.2 0.4 73 29.3
2007-06-22 10:28:38 51°24.801 2°28.756 102.9 0.5 307 28.2
2007-06-22 10:29:38 51°24.806 2°28.746 95.6 0.5 308 27.4
2007-06-22 10:30:38 51°24.808 2°28.749 102.3 0.9 101 27.5
2007-06-22 10:31:38 51°24.789 2°28.776 145 2 158 29.6
2007-06-22 10:32:38 51°24.766 2°28.781 167 0.8 188 31.7
2007-06-22 10:33:38 51°24.759 2°28.773 177.8 0.4 243 31.4
2007-06-22 10:34:38 51°24.757 2°28.759 186.5 0.6 278 31.2
2007-06-22 10:35:38 51°24.761 2°28.745 198.7 0.6 304 30.3
2007-06-22 10:36:38 51°24.768 2°28.734 211.9 0.7 316 30.2
2007-06-22 10:37:38 51°24.774 2°28.721 222.8 0.7 304 28.4
2007-06-22 10:38:38 51°24.781 2°28.708 236.9 0.6 309 28.1
2007-06-22 10:39:38 51°24.786 2°28.697 247.5 0.5 309 27.6
2007-06-22 10:40:38 51°24.792 2°28.686 259.7 0.5 305 27.5
2007-06-22 10:41:38 51°24.795 2°28.675 272.4 0.5 293 27.2
2007-06-22 10:42:38 51°24.798 2°28.649 269.4 1.8 267 26.6
2007-06-22 10:43:38 51°24.786 2°28.592 230.8 2.8 237 24.4
2007-06-22 10:44:38 51°24.747 2°28.557 174.9 2.7 184 23.6
2007-06-22 10:45:38 51°24.715 2°28.591 109 2.4 111 26.9
2007-06-22 10:46:38 51°24.717 2°28.672 87.9 3.5 87 27.2
2007-06-22 10:47:38 51°24.725 2°28.755 80.3 2.4 76 29.4
2007-06-22 10:48:38 51°24.73 2°28.786 85.3 0.2 350 31.8
2007-06-22 10:49:38 51°24.732 2°28.782 87 0.2 292 31.7
2007-06-22 10:50:38 51°24.734 2°28.777 89.1 0.1 327 31.4
2007-06-22 10:51:38 51°24.736 2°28.776 86.1 0.2 1 31.1
2007-06-22 10:52:38 51°24.739 2°28.777 79.3 0.3 359 30.4
2007-06-22 10:53:38 51°24.742 2°28.774 80.6 0.3 318 30.3
2007-06-22 10:54:38 51°24.745 2°28.768 84.6 0.2 285 30.3
2007-06-22 10:55:38 51°24.747 2°28.762 84.5 0.1 339 30.5
2007-06-22 10:56:38 51°24.75 2°28.761 80.1 0.3 335 30.8
2007-06-22 10:57:38 51°24.753 2°28.757 84.9 0.3 306 30.7
2007-06-22 10:58:38 51°24.754 2°28.752 84.2 0.3 324 30.7
2007-06-22 10:59:38 51°24.758 2°28.747 79.7 0.3 305 30.5
2007-06-22 11:00:38 51°24.76 2°28.741 81.2 0.3 298 30.3
2007-06-22 11:01:38 51°24.763 2°28.737 78.9 0.2 305 30.4
2007-06-22 11:02:38 51°24.766 2°28.731 75.9 0.4 309 30.4
2007-06-22 11:03:38 51°24.769 2°28.726 72.6 0.4 322 30.2
2007-06-22 11:04:38 51°24.773 2°28.72 71.4 0.3 311 28.9
2007-06-22 11:05:38 51°24.777 2°28.714 70.2 0.3 312 28.7
2007-06-22 11:06:38 51°24.779 2°28.704 77 0.4 272 27.9
2007-06-22 11:07:38 51°24.779 2°28.691 85.9 0.6 265 27.9
2007-06-22 11:08:38 51°24.778 2°28.674 92.2 0.6 269 27.1
2007-06-22 11:09:38 51°24.778 2°28.659 98.4 0.3 266 26.4
2007-06-22 11:10:38 51°24.775 2°28.68 96.6 1 98 27
2007-06-22 11:11:38 51°24.775 2°28.709 86.5 1 85 27.3
2007-06-22 11:12:38 51°24.775 2°28.72 93.4 0.1 219 29.1
2007-06-22 11:13:38 51°24.772 2°28.716 104.7 0.3 230 27.7
2007-06-22 11:14:38 51°24.768 2°28.709 109.8 0.4 232 28
2007-06-22 11:15:38 51°24.764 2°28.698 114.8 0.5 237 27.9
2007-06-22 11:16:38 51°24.759 2°28.686 117.9 0.6 246 28.2
2007-06-22 11:17:38 51°24.755 2°28.676 116.5 0.6 163 28
2007-06-22 11:18:38 51°24.751 2°28.705 79.9 1.5 77 28.9
2007-06-22 11:19:38 51°24.767 2°28.736 57.5 1.6 44 30.6
2007-06-22 11:20:38 51°24.79 2°28.75 29.7 1.2 -999 28.2
2007-06-22 11:21:38 51°24.797 2°28.74 36.4 0.8 257 28
2007-06-22 11:22:38 51°24.791 2°28.713 42.1 0.7 274 28
2007-06-22 11:23:38 51°24.796 2°28.719 78.9 0.8 87 27.5
2007-06-22 11:24:38 51°24.792 2°28.736 104.5 0.6 127 27.7
2007-06-22 11:25:38 51°24.784 2°28.74 118.4 0.5 187 29.3
2007-06-22 11:26:38 51°24.781 2°28.727 131.7 0.6 254 29.2
2007-06-22 11:27:38 51°24.778 2°28.716 132.8 0.4 245 28.7
2007-06-22 11:28:38 51°24.775 2°28.705 138.4 0.4 233 27.7
2007-06-22 11:29:38 51°24.77 2°28.696 144.4 0.5 233 27
2007-06-22 11:30:38 51°24.765 2°28.686 149.4 0.4 231 27.5
2007-06-22 11:31:38 51°24.748 2°28.692 129.8 1.8 148 28.3
2007-06-22 11:32:38 51°24.736 2°28.737 76.9 1.9 76 30.3
2007-06-22 11:33:38 51°24.766 2°28.758 14.7 2.6 354 30.8
2007-06-22 11:34:38 51°24.794 2°28.741 351 0.9 304 27.7
2007-06-22 11:35:38 51°24.786 2°28.728 343.6 0.9 205 28.2
2007-06-22 11:36:38 51°24.772 2°28.719 358.5 0.8 206 29.2
2007-06-22 11:37:38 51°24.763 2°28.707 7.5 0.6 220 27.9
2007-06-22 11:38:38 51°24.756 2°28.695 5.6 0.6 227 28.6
2007-06-22 11:39:38 51°24.754 2°28.683 3.5 0.8 320 28.1
2007-06-22 11:40:38 51°24.779 2°28.703 52.9 3.8 59 27.6
2007-06-22 11:41:38 51°24.749 2°28.844 123.6 7.5 133 31.9
2007-06-22 11:42:38 51°24.645 2°29.04 125.1 11.4 128 31.6
2007-06-22 11:43:38 51°24.526 2°29.309 121 13 125 33.1
2007-06-22 11:44:38 51°24.409 2°29.597 119.8 12.9 123 33.4
2007-06-22 11:45:38 51°24.291 2°29.886 120.4 12.9 122 33
2007-06-22 11:46:38 51°24.173 2°30.174 119.3 13 123 32.7
2007-06-22 11:47:38 51°24.054 2°30.463 119.4 13 123 33
2007-06-22 11:48:38 51°23.934 2°30.752 120.4 13 123 32.5
2007-06-22 11:49:38 51°23.816 2°31.041 120 13 124 32.4
2007-06-22 11:50:38 51°23.701 2°31.331 120.2 12.9 123 27.6
2007-06-22 11:51:38 51°23.588 2°31.617 120.2 12.6 124 24
2007-06-22 11:52:38 51°23.476 2°31.899 120.6 12.6 122 24.9
2007-06-22 11:53:38 51°23.362 2°32.179 120.4 12.6 124 25.9
2007-06-22 11:54:38 51°23.248 2°32.46 120 12.5 122 29.9
2007-06-22 11:55:38 51°23.134 2°32.744 120.1 12.8 122 29.1
2007-06-22 11:56:38 51°23.018 2°33.026 119.8 12.7 124 30.1
2007-06-22 11:57:38 51°22.901 2°33.307 120.1 12.6 125 30.7
2007-06-22 11:58:38 51°22.787 2°33.592 121.4 12.7 123 30.6
2007-06-22 11:59:38 51°22.669 2°33.874 120.5 12.8 125 31.1
2007-06-22 12:00:38 51°22.552 2°34.159 120.4 12.8 124 30
2007-06-22 12:01:38 51°22.437 2°34.441 120.1 12.7 125 22.9
2007-06-22 12:02:38 51°22.321 2°34.721 120.4 12.6 122 25.4
2007-06-22 12:03:38 51°22.21 2°35.009 119.9 12.6 122 28.4
2007-06-22 12:04:38 51°22.097 2°35.292 120.2 12.6 122 28.2
2007-06-22 12:05:38 51°21.985 2°35.575 120.7 12.7 123 28.9
2007-06-22 12:06:38 51°21.87 2°35.855 121.2 12.5 122 30.2
2007-06-22 12:07:38 51°21.757 2°36.137 120.2 12.7 123 30.7
2007-06-22 12:08:38 51°21.643 2°36.42 120.7 12.7 123 30.8
2007-06-22 12:09:38 51°21.529 2°36.705 120.4 12.7 122 27.9
2007-06-22 12:10:38 51°21.414 2°36.989 120.9 12.7 124 26.3
2007-06-22 12:11:38 51°21.3 2°37.27 120.3 12.5 121 23.5
2007-06-22 12:12:38 51°21.185 2°37.55 120.5 12.8 123 23.3
2007-06-22 12:13:38 51°21.07 2°37.836 120.6 12.7 122 24.4
2007-06-22 12:14:38 51°20.955 2°38.123 119.9 12.7 122 23.8
2007-06-22 12:15:38 51°20.838 2°38.406 120.7 12.9 125 23.7
2007-06-22 12:16:38 51°20.721 2°38.692 120 12.8 123 22.6
2007-06-22 12:17:38 51°20.608 2°38.979 119.7 12.8 124 23.8
2007-06-22 12:18:38 51°20.491 2°39.265 120.3 12.9 124 24.2
2007-06-22 12:19:38 51°20.375 2°39.552 119.8 12.9 121 23.9
2007-06-22 12:20:38 51°20.266 2°39.847 117.2 12.8 120 27.3
2007-06-22 12:21:38 51°20.16 2°40.143 117.4 12.9 122 27.6
2007-06-22 12:22:38 51°20.056 2°40.438 117 12.8 118 27.6
2007-06-22 12:23:38 51°19.958 2°40.737 117.6 12.6 117 18
2007-06-22 12:24:38 51°19.86 2°41.028 116.8 12.5 119 22.4
2007-06-22 12:25:38 51°19.762 2°41.317 116.8 12.4 119 18.4
2007-06-22 12:26:38 51°19.662 2°41.606 117.7 12.6 119 20.4
2007-06-22 12:27:38 51°19.557 2°41.896 117.9 12.7 121 20.9
2007-06-22 12:28:38 51°19.454 2°42.19 117.5 12.7 120 23.1
2007-06-22 12:29:38 51°19.349 2°42.489 117.5 12.9 119 23
2007-06-22 12:30:38 51°19.248 2°42.789 116.5 12.7 116 23.3
2007-06-22 12:31:38 51°19.147 2°43.088 117.2 12.7 117 23.3
2007-06-22 12:32:38 51°19.047 2°43.385 116.9 12.8 117 23
2007-06-22 12:33:38 51°18.946 2°43.681 117.2 12.7 119 22.1
2007-06-22 12:34:38 51°18.846 2°43.979 117.3 12.9 119 21.4
2007-06-22 12:35:38 51°18.744 2°44.277 117.8 12.7 119 14.1
2007-06-22 12:36:38 51°18.647 2°44.569 117.1 12.5 117 11.7
2007-06-22 12:37:38 51°18.545 2°44.864 117.2 12.8 120 15.6
2007-06-22 12:38:38 51°18.438 2°45.156 117.5 12.7 121 19.1
2007-06-22 12:39:38 51°18.332 2°45.451 117.2 12.8 119 19.7
2007-06-22 12:40:38 51°18.224 2°45.744 117.5 12.7 119 18.4
2007-06-22 12:41:38 51°18.12 2°46.039 115.8 12.7 116 17.1
2007-06-22 12:42:38 51°18.029 2°46.343 112.4 12.7 115 17.3
2007-06-22 12:43:38 51°17.938 2°46.647 113.9 12.8 116 13.4
2007-06-22 12:44:38 51°17.846 2°46.954 112.9 12.7 116 12
2007-06-22 12:45:38 51°17.756 2°47.257 113.6 12.7 116 9.9
2007-06-22 12:46:38 51°17.668 2°47.566 112.2 12.8 112 9.9
2007-06-22 12:47:38 51°17.576 2°47.871 113 12.3 114 8.7
2007-06-22 12:48:38 51°17.482 2°48.173 114.5 12.9 117 9.2
2007-06-22 12:49:38 51°17.388 2°48.476 114 12.8 116 8.7
2007-06-22 12:50:38 51°17.289 2°48.784 113.8 13.2 117 10.6
2007-06-22 12:51:38 51°17.169 2°49.074 125.9 13.2 132 10.9
2007-06-22 12:52:38 51°16.996 2°49.307 140.8 13.9 144 10.3
2007-06-22 12:53:38 51°16.816 2°49.53 138.3 13.7 141 8
2007-06-22 12:54:38 51°16.632 2°49.76 139.8 14 142 13.6
2007-06-22 12:55:38 51°16.456 2°49.988 138.4 13.6 141 10.7
2007-06-22 12:56:38 51°16.284 2°50.219 136.4 13.4 136 10.2
2007-06-22 12:57:38 51°16.126 2°50.469 134 13.5 135 9.2
2007-06-22 12:58:38 51°15.968 2°50.729 129.3 13.6 130 12
2007-06-22 12:59:38 51°15.824 2°51.011 127.6 13.5 128 12.2
2007-06-22 13:00:38 51°15.691 2°51.294 122.6 13.1 126 12.2
2007-06-22 13:01:38 51°15.568 2°51.58 122.9 13.1 124 11.9
2007-06-22 13:02:38 51°15.444 2°51.863 122.6 13 125 11.7
2007-06-22 13:03:38 51°15.32 2°52.145 122.4 13 126 11.2
2007-06-22 13:04:38 51°15.197 2°52.429 121.9 12.9 123 10.6
2007-06-22 13:05:38 51°15.075 2°52.716 120.9 13.1 123 10.2
2007-06-22 13:06:38 51°14.955 2°53.01 121.7 13.2 123 10.4
2007-06-22 13:07:38 51°14.848 2°53.288 118.5 9.9 120 10.7
2007-06-22 13:08:38 51°14.782 2°53.472 115.4 7 119 10.7
2007-06-22 13:09:38 51°14.737 2°53.596 112.2 4.2 119 10.3
2007-06-22 13:10:38 51°14.717 2°53.673 95 2.4 105 10.4
2007-06-22 13:11:38 51°14.712 2°53.723 80.7 1.6 96 10.5
2007-06-22 13:12:38 51°14.711 2°53.756 71.6 1.1 89 10.6
2007-06-22 13:13:38 51°14.713 2°53.778 65.3 0.7 83 10.5
2007-06-22 13:14:38 51°14.711 2°53.788 60.2 0.4 181 10.6
2007-06-22 13:15:38 51°14.705 2°53.785 57 0.4 194 10.5
2007-06-22 13:16:38 51°14.699 2°53.781 49.3 0.4 198 10.8
2007-06-22 13:17:38 51°14.7 2°53.796 62.6 1.9 79 10.8
2007-06-22 13:18:38 51°14.66 2°53.946 114.8 10.5 118 11.2
2007-06-22 13:19:38 51°14.571 2°54.238 114.4 12.7 116 11
2007-06-22 13:20:38 51°14.49 2°54.55 111.3 12.9 110 10.5
2007-06-22 13:21:38 51°14.407 2°54.866 114 12.8 114 10.7
2007-06-22 13:22:38 51°14.307 2°55.168 122.6 12.8 124 10.9
2007-06-22 13:23:38 51°14.176 2°55.36 147.9 9 149 -999
2007-06-22 13:24:38 51°14.062 2°55.457 155.5 7.1 153 10.6
2007-06-22 13:25:38 51°13.953 2°55.54 156 7.6 154 -999
2007-06-22 13:26:38 51°13.846 2°55.622 156.7 6.3 156 10.8
2007-06-22 13:27:38 51°13.767 2°55.704 139.3 5.7 138 11.2
2007-06-22 13:28:38 51°13.698 2°55.82 130.7 5.8 130 -999
2007-06-22 13:29:38 51°13.651 2°55.923 125.8 4.2 124 -999
2007-06-22 13:30:38 51°13.617 2°56.009 120.1 3.4 120 -999
2007-06-22 13:31:38 51°13.601 2°56.068 104.8 1.7 100 -999
2007-06-22 13:32:38 51°13.598 2°56.091 115.1 0.3 113 -999
2007-06-22 13:33:38 51°13.597 2°56.092 124.5 0.1 129 -999
2007-06-22 13:34:38 51°13.599 2°56.089 125 0.1 62 -999
2007-06-22 13:35:38 51°13.598 2°56.093 122.4 0.2 103 -999